Time;durP1;ratioP1;P1;durP2;ratioP2;P2;SDS_P1;SDS_P2;PMS_P1;PMS_P2;Temp;Humidity;BMP_temperature;BMP_pressure;BME280_temperature;BME280_humidity;BME280_pressure;Samples;Min_cycle;Max_cycle;Signal;HPM_P1;HPM_P2
2023/08/02 00:00:34;;;;;;;2.97;1.00;;;;;;;18.28;75.49;99290.25;4976482;28;20054;-72
2023/08/02 00:03:02;;;;;;;0.88;0.47;;;;;;;18.28;75.31;99287.59;4973754;28;20043;-71
2023/08/02 00:05:30;;;;;;;1.27;0.80;;;;;;;18.28;75.19;99292.88;4976640;28;20052;-72
2023/08/02 00:07:57;;;;;;;1.65;0.60;;;;;;;18.29;75.01;99285.78;4979499;28;20499;-72
2023/08/02 00:10:24;;;;;;;1.33;0.50;;;;;;;18.20;75.32;99274.94;4980673;28;20047;-71
2023/08/02 00:12:52;;;;;;;2.05;0.70;;;;;;;18.27;75.24;99287.69;4979406;28;20050;-71
2023/08/02 00:15:19;;;;;;;1.00;0.57;;;;;;;18.29;75.33;99288.44;4974573;28;20042;-71
2023/08/02 00:17:46;;;;;;;1.27;0.63;;;;;;;18.30;75.08;99290.97;4975116;28;20053;-71
2023/08/02 00:20:13;;;;;;;1.65;0.60;;;;;;;18.23;75.07;99271.22;4976084;28;20059;-71
2023/08/02 00:22:42;;;;;;;2.40;0.68;;;;;;;18.30;75.31;99290.09;4980044;28;20528;-71
2023/08/02 00:25:10;;;;;;;0.60;0.60;;;;;;;18.30;75.08;99287.47;4979660;28;20038;-71
2023/08/02 00:27:37;;;;;;;0.60;0.60;;;;;;;18.30;75.07;99283.06;4978167;28;20047;-71
2023/08/02 00:30:04;;;;;;;4.70;0.60;;;;;;;18.31;75.16;99281.25;4978828;28;20058;-72
2023/08/02 00:32:31;;;;;;;0.93;0.77;;;;;;;18.32;75.11;99272.34;4980884;28;20058;-72
2023/08/02 00:34:58;;;;;;;1.10;0.65;;;;;;;18.32;75.24;99267.91;4981578;28;20657;-71
2023/08/02 00:37:26;;;;;;;1.30;0.80;;;;;;;18.32;75.20;99273.19;4981528;28;20686;-71
2023/08/02 00:39:54;;;;;;;3.30;0.80;;;;;;;18.33;75.44;99268.75;4982319;28;20051;-71
2023/08/02 00:42:22;;;;;;;1.35;0.60;;;;;;;18.33;75.14;99272.25;4981811;28;20454;-72
2023/08/02 00:44:49;;;;;;;1.30;1.00;;;;;;;18.33;75.42;99274.06;4977747;28;20132;-71
2023/08/02 00:47:17;;;;;;;1.42;0.90;;;;;;;18.33;75.45;99274.88;4978060;28;20050;-71
2023/08/02 00:49:46;;;;;;;1.67;0.93;;;;;;;18.33;75.42;99271.41;4977497;28;20057;-71
2023/08/02 00:52:13;;;;;;;1.30;1.08;;;;;;;18.34;75.44;99276.56;4984928;28;20058;-71
2023/08/02 00:54:41;;;;;;;0.77;0.77;;;;;;;18.34;75.38;99270.44;4986188;28;20050;-73
2023/08/02 00:57:10;;;;;;;0.77;0.77;;;;;;;18.33;75.61;99272.25;4987238;28;20565;-72
2023/08/02 00:59:38;;;;;;;0.80;0.80;;;;;;;18.35;75.56;99266.81;4987800;28;20053;-71
2023/08/02 01:02:06;;;;;;;1.13;0.52;;;;;;;18.33;75.50;99272.25;4972253;28;20727;-71
2023/08/02 01:04:33;;;;;;;0.63;0.50;;;;;;;18.32;75.47;99264.41;4977437;28;20054;-71
2023/08/02 01:07:08;;;;;;;1.35;0.82;;;;;;;18.34;75.58;99273.09;4978589;28;20051;-71
2023/08/02 01:09:41;;;;;;;2.13;0.80;;;;;;;18.33;75.63;99266.13;4976404;28;20688;-71
2023/08/02 01:12:12;;;;;;;5.30;0.80;;;;;;;18.32;75.71;99261.78;4976349;28;20043;-71
2023/08/02 01:14:42;;;;;;;1.45;0.73;;;;;;;18.32;75.64;99270.53;4977848;28;20046;-71
2023/08/02 01:17:11;;;;;;;0.93;0.60;;;;;;;18.32;75.51;99265.25;4983771;28;20058;-73
2023/08/02 01:19:38;;;;;;;1.17;0.70;;;;;;;18.33;75.66;99263.47;4973135;28;20057;-72
2023/08/02 01:22:06;;;;;;;3.53;0.73;;;;;;;18.33;75.49;99258.19;4979830;28;20056;-71
2023/08/02 01:24:35;;;;;;;1.17;0.70;;;;;;;18.31;75.88;99254.81;4976340;28;20048;-72
2023/08/02 01:27:06;;;;;;;1.52;0.73;;;;;;;18.33;75.46;99252.91;4980652;28;20522;-72
2023/08/02 01:29:34;;;;;;;1.33;0.50;;;;;;;18.31;75.68;99252.16;4978495;28;20105;-72
2023/08/02 01:32:03;;;;;;;2.38;0.70;;;;;;;18.30;75.47;99253.09;4981314;28;20069;-71
2023/08/02 01:34:31;;;;;;;1.33;0.50;;;;;;;18.31;75.53;99249.53;4985373;28;20054;-71
2023/08/02 01:36:58;;;;;;;1.00;0.63;;;;;;;18.31;75.86;99241.59;4979223;28;20644;-71
2023/08/02 01:39:26;;;;;;;0.85;0.50;;;;;;;18.31;75.87;99249.53;4977968;28;20057;-71
2023/08/02 01:41:53;;;;;;;1.67;0.73;;;;;;;18.31;75.70;99246.88;4980813;28;20047;-71
2023/08/02 01:44:20;;;;;;;2.45;0.70;;;;;;;18.24;75.57;99237.72;4978217;28;20050;-72
2023/08/02 01:46:47;;;;;;;1.48;0.73;;;;;;;18.31;75.71;99241.59;4980212;28;20054;-71
2023/08/02 01:49:14;;;;;;;0.95;0.60;;;;;;;18.30;75.83;99242.53;4978708;28;20053;-73
2023/08/02 01:51:41;;;;;;;3.58;0.82;;;;;;;18.31;75.68;99245.06;4976066;28;20647;-72
2023/08/02 01:54:08;;;;;;;2.17;1.20;;;;;;;18.25;75.88;99226.19;4973839;28;20051;-71
2023/08/02 01:56:36;;;;;;;1.63;0.80;;;;;;;18.33;75.46;99244.97;4971440;28;20047;-71
2023/08/02 01:59:03;;;;;;;1.55;1.13;;;;;;;18.30;75.28;99239.88;4970549;28;20051;-71
2023/08/02 02:01:30;;;;;;;1.42;1.10;;;;;;;18.31;75.77;99239.78;4972112;28;20065;-71
2023/08/02 02:03:57;;;;;;;1.17;1.02;;;;;;;18.32;75.71;99233.53;4983869;28;20541;-76
2023/08/02 02:06:23;;;;;;;4.50;1.08;;;;;;;18.29;75.75;99225.84;4979659;28;20058;-76
2023/08/02 02:08:50;;;;;;;1.50;1.30;;;;;;;18.33;75.64;99231.75;4979532;28;20105;-77
2023/08/02 02:11:17;;;;;;;1.95;1.15;;;;;;;18.32;75.57;99230.88;4979925;28;20050;-77
2023/08/02 02:13:46;;;;;;;5.97;1.38;;;;;;;18.30;75.72;99222.25;4976347;28;20054;-76
2023/08/02 02:16:12;;;;;;;3.28;1.10;;;;;;;18.33;75.45;99226.47;4984023;28;20074;-76
2023/08/02 02:18:39;;;;;;;2.72;0.93;;;;;;;18.33;75.51;99215.91;4978385;28;20077;-77
2023/08/02 02:21:06;;;;;;;1.00;0.70;;;;;;;18.32;75.58;99207.09;4984887;28;20502;-77
2023/08/02 02:23:33;;;;;;;2.75;1.30;;;;;;;18.34;75.47;99213.13;4981278;28;20068;-76
2023/08/02 02:26:00;;;;;;;2.03;1.40;;;;;;;18.33;75.66;99210.59;4977005;28;20058;-76
2023/08/02 02:28:27;;;;;;;1.38;0.82;;;;;;;18.18;75.70;99187.00;4978670;28;20055;-76
2023/08/02 02:30:56;;;;;;;0.90;0.73;;;;;;;18.34;75.44;99207.00;4978761;28;20146;-76
2023/08/02 02:33:23;;;;;;;2.20;0.70;;;;;;;18.34;75.52;99201.72;4982195;28;20054;-75
2023/08/02 02:35:50;;;;;;;1.55;0.80;;;;;;;18.34;75.36;99193.78;4980079;28;20397;-76
2023/08/02 02:38:17;;;;;;;1.13;0.75;;;;;;;18.34;75.44;99196.41;4977152;28;20050;-76
2023/08/02 02:40:44;;;;;;;2.85;0.95;;;;;;;18.23;75.51;99180.53;4977904;28;20065;-83
2023/08/02 02:43:11;;;;;;;1.27;0.60;;;;;;;18.34;75.40;99191.13;4995641;28;20479;-83
2023/08/02 02:45:38;;;;;;;3.22;0.60;;;;;;;18.34;75.44;99193.78;4986089;28;20506;-83
2023/08/02 02:48:06;;;;;;;0.73;0.52;;;;;;;18.24;75.53;99174.28;4980604;28;20051;-82
2023/08/02 02:50:33;;;;;;;0.75;0.75;;;;;;;18.19;75.53;99177.28;4984640;28;20050;-83
2023/08/02 02:53:00;;;;;;;0.50;0.50;;;;;;;18.30;75.22;99189.66;4984493;28;20053;-82
2023/08/02 02:55:27;;;;;;;0.60;0.50;;;;;;;18.32;75.47;99195.69;4981787;28;20050;-82
2023/08/02 02:57:54;;;;;;;2.00;0.57;;;;;;;18.24;75.38;99179.56;4983582;28;20058;-82
2023/08/02 03:00:21;;;;;;;0.80;0.60;;;;;;;18.31;75.57;99194.00;4978413;28;20061;-83
2023/08/02 03:02:48;;;;;;;0.50;0.50;;;;;;;18.32;75.40;99193.03;4981755;28;20052;-82
2023/08/02 03:05:16;;;;;;;0.95;0.60;;;;;;;18.31;75.37;99183.44;4995974;28;20058;-82
2023/08/02 03:07:43;;;;;;;0.52;0.52;;;;;;;18.30;75.34;99176.44;4989487;28;20066;-82
2023/08/02 03:10:10;;;;;;;0.93;0.50;;;;;;;18.31;75.43;99175.50;4981695;28;20509;-82
2023/08/02 03:12:37;;;;;;;2.28;1.70;;;;;;;18.30;75.32;99177.31;4982002;28;20046;-82
2023/08/02 03:15:05;;;;;;;1.17;0.40;;;;;;;18.30;75.29;99179.09;4987962;28;20418;-82
2023/08/02 03:17:33;;;;;;;2.28;0.60;;;;;;;18.07;75.23;99139.41;4991418;28;20047;-82
2023/08/02 03:19:59;;;;;;;3.03;0.60;;;;;;;18.29;75.21;99166.84;4985939;28;20042;-82
2023/08/02 03:22:28;;;;;;;0.70;0.70;;;;;;;18.28;75.41;99168.66;4990212;28;20065;-84
2023/08/02 03:24:55;;;;;;;2.25;0.45;;;;;;;18.19;75.45;99146.41;4989201;28;20050;-82
2023/08/02 03:27:22;;;;;;;0.70;0.47;;;;;;;18.29;75.47;99161.56;4995249;28;20522;-82
2023/08/02 03:29:49;;;;;;;1.63;0.50;;;;;;;18.20;75.41;99144.59;4985980;28;20050;-82
2023/08/02 03:32:16;;;;;;;0.60;0.50;;;;;;;18.26;75.47;99152.06;4984561;28;20124;-82
2023/08/02 03:34:43;;;;;;;1.10;0.50;;;;;;;18.18;75.46;99138.59;4981852;28;20089;-82
2023/08/02 03:37:10;;;;;;;2.15;0.60;;;;;;;18.22;75.42;99153.25;4984857;28;20051;-83
2023/08/02 03:39:38;;;;;;;1.42;0.50;;;;;;;18.26;75.42;99161.78;4980556;28;20047;-82
2023/08/02 03:42:05;;;;;;;2.85;0.57;;;;;;;18.27;75.46;99159.06;4983048;28;20065;-82
2023/08/02 03:44:32;;;;;;;0.50;0.50;;;;;;;18.27;75.33;99160.81;4980525;28;20709;-82
2023/08/02 03:46:59;;;;;;;0.47;0.47;;;;;;;18.25;75.37;99150.38;4986800;28;20078;-81
2023/08/02 03:49:26;;;;;;;0.60;0.50;;;;;;;18.14;75.30;99137.97;4990122;28;20051;-81
2023/08/02 03:51:53;;;;;;;0.60;0.60;;;;;;;18.04;75.54;99121.13;4991184;28;20060;-81
2023/08/02 03:54:20;;;;;;;0.50;0.50;;;;;;;18.26;75.85;99159.16;4991250;28;20386;-80
2023/08/02 03:56:48;;;;;;;1.02;0.40;;;;;;;18.26;75.55;99156.50;4983063;28;20047;-80
2023/08/02 03:59:15;;;;;;;1.27;0.50;;;;;;;18.17;75.87;99156.25;4988688;28;20054;-80
2023/08/02 04:01:42;;;;;;;1.25;0.50;;;;;;;18.26;75.80;99172.38;4991179;28;20057;-80
2023/08/02 04:04:09;;;;;;;0.88;0.50;;;;;;;18.25;75.89;99168.88;4985115;28;20048;-79
2023/08/02 04:06:36;;;;;;;1.65;0.60;;;;;;;18.26;76.00;99173.19;4984226;28;20047;-79
2023/08/02 04:09:03;;;;;;;1.58;0.47;;;;;;;18.20;75.70;99163.94;4986882;28;20495;-79
2023/08/02 04:11:31;;;;;;;1.25;0.70;;;;;;;18.24;75.97;99163.69;4986744;28;20043;-80
2023/08/02 04:13:59;;;;;;;0.82;0.50;;;;;;;18.27;75.93;99166.09;4989081;28;20051;-79
2023/08/02 04:16:26;;;;;;;0.47;0.43;;;;;;;18.23;75.83;99162.88;4989024;28;20039;-79
2023/08/02 04:18:53;;;;;;;0.40;0.40;;;;;;;18.26;75.53;99162.63;4984373;28;20046;-80
2023/08/02 04:21:20;;;;;;;0.82;0.57;;;;;;;18.26;75.41;99167.91;4986555;28;20491;-80
2023/08/02 04:23:48;;;;;;;1.20;0.45;;;;;;;18.19;75.18;99156.16;4982234;28;20043;-79
2023/08/02 04:26:15;;;;;;;0.95;0.40;;;;;;;18.25;75.21;99165.41;4986303;28;20084;-79
2023/08/02 04:28:42;;;;;;;0.88;0.40;;;;;;;18.25;75.30;99168.06;4984650;28;20046;-79
2023/08/02 04:31:10;;;;;;;2.83;0.55;;;;;;;18.25;75.33;99175.97;4994319;28;20402;-79
2023/08/02 04:33:37;;;;;;;0.50;0.40;;;;;;;18.25;75.10;99175.97;4975543;28;20129;-79
2023/08/02 04:36:05;;;;;;;0.63;0.30;;;;;;;18.25;75.20;99171.53;4982159;28;20049;-80
2023/08/02 04:38:32;;;;;;;0.47;0.30;;;;;;;18.25;75.22;99165.41;4987775;28;20053;-79
2023/08/02 04:40:59;;;;;;;3.92;0.30;;;;;;;18.22;75.30;99157.72;4988414;28;20068;-79
2023/08/02 04:43:26;;;;;;;2.55;0.40;;;;;;;18.17;75.19;99152.75;4991458;28;20047;-80
2023/08/02 04:45:52;;;;;;;1.42;0.50;;;;;;;18.25;75.38;99160.97;4976432;28;20492;-79
2023/08/02 04:48:21;;;;;;;1.42;0.70;;;;;;;18.22;75.09;99163.84;4986579;28;20042;-79
2023/08/02 04:50:48;;;;;;;1.63;0.30;;;;;;;18.27;75.24;99163.47;4979680;28;20047;-80
2023/08/02 04:53:15;;;;;;;0.57;0.40;;;;;;;18.27;75.35;99166.97;4974626;28;20082;-80
2023/08/02 04:55:43;;;;;;;1.42;0.38;;;;;;;18.27;75.31;99172.25;4987704;28;20097;-80
2023/08/02 04:58:09;;;;;;;1.60;0.40;;;;;;;18.27;75.33;99169.63;4982435;28;20130;-80
2023/08/02 05:00:36;;;;;;;0.60;0.40;;;;;;;18.26;75.30;99164.44;4982414;28;20050;-82
2023/08/02 05:03:04;;;;;;;0.50;0.43;;;;;;;18.26;75.20;99167.09;4983482;28;20066;-81
2023/08/02 05:05:32;;;;;;;1.27;0.40;;;;;;;18.29;75.29;99178.25;4986619;28;20054;-81
2023/08/02 05:08:00;;;;;;;0.45;0.40;;;;;;;18.13;75.24;99144.22;4989128;28;20057;-81
2023/08/02 05:10:27;;;;;;;0.70;0.40;;;;;;;18.11;75.32;99137.38;4986194;28;20053;-82
2023/08/02 05:12:54;;;;;;;0.30;0.30;;;;;;;18.27;75.27;99166.97;4991334;28;20050;-81
2023/08/02 05:15:21;;;;;;;1.15;0.40;;;;;;;18.23;75.22;99151.47;4989910;28;20104;-81
2023/08/02 05:17:48;;;;;;;1.25;0.60;;;;;;;18.25;75.21;99155.66;4986004;28;20065;-81
2023/08/02 05:20:15;;;;;;;1.17;0.40;;;;;;;18.33;75.39;99168.31;4989449;28;20054;-82
2023/08/02 05:22:43;;;;;;;3.08;0.50;;;;;;;18.33;75.39;99169.16;4982973;28;20051;-82
2023/08/02 05:25:10;;;;;;;2.35;0.50;;;;;;;18.35;75.34;99174.31;4979340;28;20046;-81
2023/08/02 05:27:37;;;;;;;0.52;0.40;;;;;;;18.33;75.53;99168.31;4982782;28;20058;-82
2023/08/02 05:30:07;;;;;;;0.70;0.60;;;;;;;18.36;75.50;99157.50;4981923;28;20518;-82
2023/08/02 05:32:34;;;;;;;1.83;0.60;;;;;;;18.38;75.59;99164.31;4977293;28;20047;-81
2023/08/02 05:35:01;;;;;;;0.80;0.55;;;;;;;18.39;75.76;99165.19;4983939;28;20066;-82
2023/08/02 05:37:30;;;;;;;2.88;0.50;;;;;;;18.40;75.85;99164.22;4985643;28;20043;-81
2023/08/02 05:39:58;;;;;;;0.70;0.50;;;;;;;18.41;75.97;99165.91;4985926;28;20046;-81
2023/08/02 05:42:25;;;;;;;1.83;0.50;;;;;;;18.41;76.04;99166.75;4979916;28;20089;-80
2023/08/02 05:44:52;;;;;;;1.25;0.68;;;;;;;18.43;76.29;99158.69;4985503;28;20053;-80
2023/08/02 05:47:19;;;;;;;1.52;0.50;;;;;;;18.44;76.24;99160.38;4985178;28;20407;-80
2023/08/02 05:49:48;;;;;;;2.08;0.70;;;;;;;18.47;76.42;99164.59;4976983;28;20054;-80
2023/08/02 05:52:15;;;;;;;5.82;0.57;;;;;;;18.48;76.23;99161.84;4987632;28;20043;-80
2023/08/02 05:54:42;;;;;;;2.40;0.60;;;;;;;18.51;76.28;99156.31;4981174;28;20077;-80
2023/08/02 05:57:10;;;;;;;3.25;0.50;;;;;;;18.49;76.41;99163.50;4985442;28;20046;-80
2023/08/02 05:59:38;;;;;;;0.60;0.38;;;;;;;18.53;76.16;99157.03;4985823;28;20415;-81
2023/08/02 06:02:06;;;;;;;4.43;0.50;;;;;;;18.58;76.54;99168.09;4975565;28;20085;-81
2023/08/02 06:04:37;;;;;;;0.98;0.40;;;;;;;18.60;76.08;99166.19;4992957;28;20053;-82
2023/08/02 06:07:05;;;;;;;2.25;0.45;;;;;;;18.62;76.12;99172.19;4979368;28;20054;-82
2023/08/02 06:09:32;;;;;;;3.88;0.50;;;;;;;18.61;76.25;99170.53;4978871;28;20039;-81
2023/08/02 06:11:59;;;;;;;0.77;0.50;;;;;;;18.66;76.05;99172.78;4978850;28;20043;-82
2023/08/02 06:14:27;;;;;;;6.03;0.50;;;;;;;18.66;76.05;99170.16;4982707;28;20064;-81
2023/08/02 06:16:54;;;;;;;1.73;0.40;;;;;;;18.68;76.00;99170.03;4987279;28;20043;-81
2023/08/02 06:19:21;;;;;;;0.95;0.32;;;;;;;18.69;76.02;99177.84;4982398;28;20046;-81
2023/08/02 06:21:48;;;;;;;1.75;0.43;;;;;;;18.66;75.87;99165.69;4992996;28;20046;-81
2023/08/02 06:24:15;;;;;;;0.38;0.38;;;;;;;18.51;75.57;99135.16;4992875;28;20050;-80
2023/08/02 06:26:42;;;;;;;3.40;0.40;;;;;;;18.72;75.88;99166.19;4987922;28;20057;-80
2023/08/02 06:29:11;;;;;;;0.70;0.30;;;;;;;18.75;75.85;99173.91;4984992;28;20047;-80
2023/08/02 06:31:39;;;;;;;1.40;0.35;;;;;;;18.75;75.69;99168.63;4975482;28;20142;-80
2023/08/02 06:34:06;;;;;;;1.52;0.30;;;;;;;18.77;75.98;99169.34;4976710;28;20046;-80
2023/08/02 06:36:34;;;;;;;1.60;0.30;;;;;;;18.76;75.84;99159.75;4986557;28;20476;-80
2023/08/02 06:39:01;;;;;;;2.30;0.40;;;;;;;18.79;76.02;99164.78;4981584;28;20558;-80
2023/08/02 06:41:28;;;;;;;0.52;0.30;;;;;;;18.78;75.91;99158.63;4987089;28;20486;-80
2023/08/02 06:43:55;;;;;;;3.05;0.45;;;;;;;18.84;75.67;99166.13;4983158;28;20479;-80
2023/08/02 06:46:22;;;;;;;1.35;0.30;;;;;;;18.87;75.94;99171.16;4980165;28;20052;-80
2023/08/02 06:48:50;;;;;;;1.42;0.30;;;;;;;18.90;75.92;99164.78;4982674;28;20047;-80
2023/08/02 06:51:17;;;;;;;3.63;0.30;;;;;;;18.90;76.05;99164.78;4982939;28;20054;-80
2023/08/02 06:53:44;;;;;;;2.25;0.30;;;;;;;18.83;75.81;99147.69;4976897;28;20057;-79
2023/08/02 06:56:14;;;;;;;3.75;0.40;;;;;;;18.96;75.99;99161.66;4985593;28;20517;-80
2023/08/02 06:58:41;;;;;;;0.22;0.20;;;;;;;19.00;75.68;99155.16;4980301;28;20061;-80
2023/08/02 07:01:14;;;;;;;1.60;0.35;;;;;;;19.03;75.80;99160.19;4983227;28;20043;-80
2023/08/02 07:03:41;;;;;;;1.00;0.40;;;;;;;19.06;76.00;99167.88;4982624;28;20110;-80
2023/08/02 07:06:11;;;;;;;2.55;0.40;;;;;;;19.10;76.25;99164.06;4974999;28;20101;-79
2023/08/02 07:08:38;;;;;;;1.63;0.30;;;;;;;19.10;76.31;99160.56;4975269;28;20046;-78
2023/08/02 07:11:05;;;;;;;2.20;0.30;;;;;;;19.13;76.16;99167.44;4988549;28;20491;-79
2023/08/02 07:13:32;;;;;;;2.20;0.30;;;;;;;19.22;75.97;99171.97;4991307;28;20501;-79
2023/08/02 07:15:59;;;;;;;0.82;0.30;;;;;;;19.25;75.15;99177.03;4981900;28;20051;-79
2023/08/02 07:18:27;;;;;;;8.02;0.30;;;;;;;19.29;75.18;99181.09;4988814;28;20057;-79
2023/08/02 07:20:54;;;;;;;1.05;0.30;;;;;;;19.31;75.08;99176.53;4982630;28;20510;-78
2023/08/02 07:23:23;;;;;;;1.73;0.30;;;;;;;19.32;75.05;99178.19;4991698;28;20046;-80
2023/08/02 07:25:50;;;;;;;0.88;0.30;;;;;;;19.34;75.26;99181.56;4988683;28;20048;-78
2023/08/02 07:28:17;;;;;;;1.05;0.28;;;;;;;19.39;74.81;99183.88;4983387;28;20050;-79
2023/08/02 07:30:45;;;;;;;2.50;0.30;;;;;;;19.40;73.98;99181.09;4985186;28;20445;-79
2023/08/02 07:33:12;;;;;;;3.20;0.40;;;;;;;19.42;74.10;99178.31;4981981;28;20051;-80
2023/08/02 07:35:38;;;;;;;0.40;0.30;;;;;;;19.45;73.81;99188.66;4984594;28;20832;-80
2023/08/02 07:38:05;;;;;;;1.25;0.30;;;;;;;19.47;73.80;99198.19;4979809;28;20057;-79
2023/08/02 07:40:34;;;;;;;1.05;0.30;;;;;;;19.47;73.82;99189.41;4978284;28;20102;-78
2023/08/02 07:43:01;;;;;;;4.07;0.60;;;;;;;19.47;73.97;99182.28;4987163;28;20509;-79
2023/08/02 07:45:28;;;;;;;0.47;0.40;;;;;;;19.52;73.69;99203.09;4975732;28;20129;-78
2023/08/02 07:47:55;;;;;;;1.90;0.40;;;;;;;19.54;73.47;99201.16;4984897;28;20054;-78
2023/08/02 07:50:22;;;;;;;1.52;0.40;;;;;;;19.60;73.48;99202.47;4989317;28;20054;-78
2023/08/02 07:52:49;;;;;;;0.40;0.30;;;;;;;19.57;72.95;99194.78;4986915;28;20051;-78
2023/08/02 07:55:16;;;;;;;1.45;0.40;;;;;;;19.63;72.92;99203.06;4982195;28;20038;-78
2023/08/02 07:57:44;;;;;;;1.25;0.40;;;;;;;19.61;72.10;99193.56;4991575;28;20054;-79
2023/08/02 08:00:12;;;;;;;0.40;0.40;;;;;;;19.69;72.10;99196.44;4979948;28;20047;-78
2023/08/02 08:02:39;;;;;;;0.50;0.30;;;;;;;19.69;71.86;99196.44;4975505;28;20397;-79
2023/08/02 08:05:08;;;;;;;0.47;0.30;;;;;;;19.74;71.62;99200.41;4980773;28;20054;-78
2023/08/02 08:07:34;;;;;;;0.57;0.40;;;;;;;19.68;72.13;99190.31;4985396;28;20491;-77
2023/08/02 08:10:01;;;;;;;1.63;0.43;;;;;;;19.73;71.47;99195.25;4983917;28;20126;-79
2023/08/02 08:12:28;;;;;;;0.30;0.30;;;;;;;19.83;71.68;99213.88;4987356;28;20411;-79
2023/08/02 08:14:57;;;;;;;1.02;0.30;;;;;;;19.84;70.96;99227.00;4985980;28;20082;-79
2023/08/02 08:17:24;;;;;;;0.85;0.40;;;;;;;19.85;69.72;99223.38;4991154;28;20050;-79
2023/08/02 08:19:51;;;;;;;0.77;0.50;;;;;;;19.85;69.99;99228.69;4980380;28;20066;-79
2023/08/02 08:22:20;;;;;;;0.40;0.40;;;;;;;19.86;69.75;99234.81;4987229;28;20054;-79
2023/08/02 08:24:47;;;;;;;0.77;0.50;;;;;;;19.87;69.32;99232.06;4990249;28;20046;-79
2023/08/02 08:27:14;;;;;;;1.65;0.52;;;;;;;19.87;69.23;99236.53;4979755;28;20072;-78
2023/08/02 08:29:41;;;;;;;0.38;0.38;;;;;;;19.87;69.31;99234.72;4985221;28;20078;-79
2023/08/02 08:32:10;;;;;;;3.22;0.40;;;;;;;19.88;68.95;99239.03;4982328;28;20392;-80
2023/08/02 08:34:37;;;;;;;0.30;0.30;;;;;;;19.85;69.30;99239.28;4979561;28;20061;-79
2023/08/02 08:37:04;;;;;;;0.57;0.40;;;;;;;19.84;68.91;99237.63;4983097;28;20046;-79
2023/08/02 08:39:31;;;;;;;0.60;0.60;;;;;;;19.89;69.28;99240.72;4979528;28;20439;-79
2023/08/02 08:41:58;;;;;;;0.40;0.30;;;;;;;19.90;69.44;99238.94;4981941;28;20059;-79
2023/08/02 08:44:25;;;;;;;1.80;0.30;;;;;;;19.90;69.46;99237.09;4981699;28;20046;-79
2023/08/02 08:46:59;;;;;;;1.05;0.30;;;;;;;19.91;69.09;99244.09;4986227;28;20063;-77
2023/08/02 08:49:27;;;;;;;1.25;0.40;;;;;;;19.91;68.90;99238.78;4982327;28;20050;-78
2023/08/02 08:51:58;;;;;;;0.47;0.30;;;;;;;19.72;68.96;99217.41;4989262;28;20054;-78
2023/08/02 08:54:28;;;;;;;1.95;0.35;;;;;;;19.90;68.99;99252.19;4987973;28;20411;-78
2023/08/02 08:56:56;;;;;;;5.40;0.85;;;;;;;19.86;69.17;99246.25;4984597;28;20384;-77
2023/08/02 08:59:24;;;;;;;0.68;0.30;;;;;;;19.89;69.05;99261.91;4977751;28;20073;-78
2023/08/02 09:01:51;;;;;;;0.30;0.30;;;;;;;19.89;68.98;99263.72;4989919;28;20056;-79
2023/08/02 09:04:19;;;;;;;0.82;0.30;;;;;;;19.82;68.78;99257.25;4986882;28;20053;-79
2023/08/02 09:06:47;;;;;;;0.40;0.35;;;;;;;19.86;68.52;99262.16;4990875;28;20052;-79
2023/08/02 09:09:15;;;;;;;1.90;0.40;;;;;;;19.81;68.62;99263.50;4987241;28;20431;-78
2023/08/02 09:11:43;;;;;;;1.25;0.40;;;;;;;19.73;68.67;99245.59;4978698;28;20062;-79
2023/08/02 09:14:12;;;;;;;0.40;0.35;;;;;;;19.89;68.86;99275.16;4978681;28;20406;-79
2023/08/02 09:16:56;;;;;;;0.40;0.30;;;;;;;19.91;68.51;99270.59;4977121;28;20043;-78
2023/08/02 09:19:23;;;;;;;1.13;0.30;;;;;;;19.73;68.14;99249.06;4984784;28;20047;-79
2023/08/02 09:22:05;;;;;;;7.15;0.70;;;;;;;19.89;68.05;99269.84;4986102;28;20050;-78
2023/08/02 09:24:34;;;;;;;0.45;0.30;;;;;;;19.88;67.46;99270.84;4978216;28;20054;-79
2023/08/02 09:27:01;;;;;;;0.50;0.30;;;;;;;19.87;67.36;99268.31;4978445;28;20137;-78
2023/08/02 09:29:43;;;;;;;0.28;0.20;;;;;;;19.80;67.17;99259.19;4990802;28;20061;-78
2023/08/02 09:32:11;;;;;;;0.22;0.22;;;;;;;19.84;67.58;99273.88;4985180;28;20054;-78
2023/08/02 09:34:48;;;;;;;0.30;0.30;;;;;;;19.88;68.11;99276.13;4977545;28;20565;-79
2023/08/02 09:37:28;;;;;;;0.30;0.30;;;;;;;19.88;67.71;99270.00;4982685;28;20051;-79
2023/08/02 09:39:55;;;;;;;0.38;0.20;;;;;;;19.91;67.05;99285.66;4977683;28;20043;-78
2023/08/02 09:42:23;;;;;;;2.08;0.20;;;;;;;19.94;67.19;99286.22;4998002;28;20395;-78
2023/08/02 09:44:54;;;;;;;0.90;0.20;;;;;;;19.89;66.89;99269.84;4982182;28;20053;-78
2023/08/02 09:47:22;;;;;;;2.40;0.75;;;;;;;19.94;66.20;99280.94;4985998;28;20056;-78
2023/08/02 09:50:06;;;;;;;0.30;0.20;;;;;;;19.94;66.21;99277.44;4983909;28;20657;-79
2023/08/02 09:52:36;;;;;;;0.35;0.20;;;;;;;19.91;65.98;99275.03;4981666;28;20048;-79
2023/08/02 09:55:03;;;;;;;0.20;0.20;;;;;;;19.76;66.17;99254.13;4988687;28;20046;-78
2023/08/02 09:57:32;;;;;;;0.30;0.30;;;;;;;19.96;66.38;99281.66;4982410;28;20495;-79
2023/08/02 10:00:04;;;;;;;0.82;0.20;;;;;;;19.98;66.37;99281.56;4981640;28;20043;-78
2023/08/02 10:13:10;;;;;;;0.30;0.20;;;;;;;20.14;66.20;99281.97;5075184;22;20430;-79
2023/08/02 10:15:40;;;;;;;0.20;0.20;;;;;;;20.18;66.09;99293.19;5035276;28;20053;-78
2023/08/02 10:18:08;;;;;;;0.17;0.15;;;;;;;20.22;66.34;99289.28;5039874;28;20049;-78
2023/08/02 10:20:35;;;;;;;0.70;0.28;;;;;;;20.17;65.97;99276.41;5039849;28;20708;-78
2023/08/02 10:23:04;;;;;;;0.20;0.20;;;;;;;20.29;65.67;99293.13;5038973;28;20144;-78
2023/08/02 10:25:34;;;;;;;0.30;0.20;;;;;;;20.32;65.61;99289.34;5032271;28;20666;-78
2023/08/02 10:28:02;;;;;;;0.60;0.20;;;;;;;20.35;64.93;99289.97;5041173;28;20050;-78
2023/08/02 10:30:31;;;;;;;0.40;0.40;;;;;;;20.37;65.34;99282.72;5039430;28;20437;-77
2023/08/02 10:33:12;;;;;;;0.35;0.20;;;;;;;20.40;65.32;99297.53;5031641;28;20392;-78
2023/08/02 10:35:56;;;;;;;4.00;0.20;;;;;;;20.45;65.02;99300.66;5030985;28;20095;-78
2023/08/02 10:38:26;;;;;;;0.40;0.20;;;;;;;20.44;65.19;99298.97;5032854;28;20548;-77
2023/08/02 10:41:04;;;;;;;0.35;0.20;;;;;;;20.50;64.79;99297.63;5026667;28;20055;-78
2023/08/02 10:43:31;;;;;;;0.20;0.20;;;;;;;20.53;64.68;99300.06;5026527;28;20124;-77
2023/08/02 10:46:19;;;;;;;0.35;0.20;;;;;;;20.54;64.39;99291.13;5038194;28;20045;-79
2023/08/02 10:48:46;;;;;;;1.55;0.25;;;;;;;20.54;64.34;99294.59;5026882;28;20048;-78
2023/08/02 10:51:32;;;;;;;0.20;0.20;;;;;;;20.58;64.42;99300.53;5028034;28;20140;-78
2023/08/02 10:54:15;;;;;;;0.30;0.20;;;;;;;20.61;64.60;99294.94;5034305;28;20049;-77
2023/08/02 10:57:14;;;;;;;0.43;0.30;;;;;;;20.63;64.05;99293.00;5025634;28;20528;-77
2023/08/02 10:59:42;;;;;;;0.70;0.20;;;;;;;20.59;64.29;99289.75;5040768;28;20137;-78
2023/08/02 11:02:12;;;;;;;0.25;0.20;;;;;;;20.65;64.11;99299.00;5035998;28;20137;-78
2023/08/02 11:04:45;;;;;;;0.85;0.20;;;;;;;20.62;63.41;99288.66;5034648;28;20053;-78
2023/08/02 11:07:13;;;;;;;0.85;0.17;;;;;;;20.69;63.20;99304.91;5040071;28;20053;-76
2023/08/02 11:09:40;;;;;;;1.40;0.20;;;;;;;20.61;63.07;99287.00;5043083;28;20120;-77
2023/08/02 11:12:11;;;;;;;1.52;0.20;;;;;;;20.70;63.26;99299.47;5033898;28;20140;-78
2023/08/02 11:14:38;;;;;;;1.20;0.20;;;;;;;20.69;63.50;99299.59;5022005;28;20060;-78
2023/08/02 11:17:06;;;;;;;1.50;0.20;;;;;;;20.58;62.78;99282.78;5024231;28;20052;-79
2023/08/02 11:19:36;;;;;;;0.35;0.30;;;;;;;20.70;62.54;99299.47;5028912;28;20056;-78
2023/08/02 11:22:03;;;;;;;0.20;0.20;;;;;;;20.73;62.71;99298.38;5026780;28;20042;-79
2023/08/02 11:24:42;;;;;;;1.35;0.20;;;;;;;20.73;62.42;99291.25;5021086;28;20053;-78
2023/08/02 11:27:09;;;;;;;1.58;0.20;;;;;;;20.69;61.77;99294.28;5018101;28;20469;-79
2023/08/02 11:29:36;;;;;;;1.35;0.20;;;;;;;20.61;62.02;99279.03;5019921;28;20050;-78
2023/08/02 11:32:05;;;;;;;0.38;0.20;;;;;;;20.65;61.64;99285.75;5023243;28;20056;-77
2023/08/02 11:34:39;;;;;;;1.95;0.15;;;;;;;20.75;62.44;99301.72;5019575;28;20087;-77
2023/08/02 11:37:06;;;;;;;2.50;0.20;;;;;;;20.72;61.92;99294.91;5023288;28;20058;-78
2023/08/02 11:39:34;;;;;;;0.85;0.20;;;;;;;20.67;61.87;99278.50;5019202;28;20548;-78
2023/08/02 11:42:02;;;;;;;0.57;0.20;;;;;;;20.80;61.62;99296.88;5025019;28;20054;-78
2023/08/02 11:44:29;;;;;;;0.20;0.10;;;;;;;20.82;61.94;99297.59;5020716;28;20663;-79
2023/08/02 11:46:57;;;;;;;3.40;0.20;;;;;;;20.83;62.16;99291.31;5021717;28;20516;-77
2023/08/02 11:49:25;;;;;;;0.30;0.20;;;;;;;20.85;62.18;99311.44;5017726;28;20046;-78